Time;durP1;ratioP1;P1;durP2;ratioP2;P2;SDS_P1;SDS_P2;PMS_P1;PMS_P2;Temp;Humidity;BMP_temperature;BMP_pressure;BME280_temperature;BME280_humidity;BME280_pressure;Samples;Min_cycle;Max_cycle;Signal;HPM_P1;HPM_P2
2022/10/14 00:00:30;;;;;;;4.80;4.35;;;17.30;82.40;;;;;;5090810;28;20034;-71
2022/10/14 00:02:56;;;;;;;5.13;3.60;;;17.30;82.40;;;;;;5092272;28;20032;-71
2022/10/14 00:05:21;;;;;;;4.65;4.10;;;17.30;82.40;;;;;;5085023;28;20032;-71
2022/10/14 00:07:47;;;;;;;6.38;3.70;;;17.30;82.50;;;;;;5081025;28;20017;-71
2022/10/14 00:10:13;;;;;;;5.13;3.83;;;17.30;82.50;;;;;;5094877;28;20027;-71
2022/10/14 00:12:38;;;;;;;4.63;4.15;;;17.30;82.50;;;;;;5091936;28;20024;-71
2022/10/14 00:15:05;;;;;;;8.13;3.95;;;17.30;82.60;;;;;;5090620;28;20032;-71
2022/10/14 00:17:31;;;;;;;4.85;3.88;;;17.40;82.60;;;;;;5092190;28;20078;-71
2022/10/14 00:19:58;;;;;;;6.47;3.83;;;17.40;82.60;;;;;;5090630;28;20059;-71
2022/10/14 00:22:24;;;;;;;7.78;3.90;;;17.40;82.60;;;;;;5091947;28;20023;-71
2022/10/14 00:24:49;;;;;;;3.97;3.58;;;17.40;83.50;;;;;;5091880;28;20024;-71
2022/10/14 00:27:15;;;;;;;5.78;3.90;;;17.40;82.50;;;;;;5091412;28;20093;-71
2022/10/14 00:29:40;;;;;;;7.38;3.70;;;17.40;82.50;;;;;;5095663;28;20103;-71
2022/10/14 00:32:06;;;;;;;6.10;4.13;;;17.40;82.50;;;;;;5091554;28;20016;-71
2022/10/14 00:34:32;;;;;;;5.10;4.15;;;17.30;82.50;;;;;;5086999;28;20039;-71
2022/10/14 00:36:57;;;;;;;5.18;3.80;;;17.30;82.50;;;;;;5095854;28;20021;-71
2022/10/14 00:39:23;;;;;;;5.65;4.07;;;17.40;82.60;;;;;;5092922;28;20020;-71
2022/10/14 00:41:48;;;;;;;5.03;3.67;;;17.30;82.50;;;;;;5084145;28;20090;-71
2022/10/14 00:44:14;;;;;;;8.15;3.85;;;17.40;82.60;;;;;;5075031;28;20441;-71
2022/10/14 00:46:44;;;;;;;5.90;3.85;;;17.30;82.70;;;;;;5084787;28;20024;-71
2022/10/14 00:49:16;;;;;;;6.65;3.80;;;17.40;82.70;;;;;;5077401;28;20026;-71
2022/10/14 00:51:45;;;;;;;4.75;3.50;;;17.40;82.80;;;;;;5077357;28;20019;-71
2022/10/14 00:54:10;;;;;;;4.65;3.45;;;17.40;82.80;;;;;;5077422;28;20557;-71
2022/10/14 00:56:36;;;;;;;5.22;3.75;;;17.40;82.80;;;;;;5077074;28;20103;-71
2022/10/14 00:59:02;;;;;;;4.80;3.95;;;17.40;82.80;;;;;;5093816;28;20071;-71
2022/10/14 01:01:28;;;;;;;5.03;3.67;;;17.40;82.90;;;;;;5077171;28;20099;-71
2022/10/14 01:03:53;;;;;;;8.40;3.90;;;17.40;82.80;;;;;;5093752;28;20112;-72
2022/10/14 01:06:30;;;;;;;7.57;4.25;;;17.40;82.90;;;;;;5093302;28;20099;-71
2022/10/14 01:09:32;;;;;;;8.10;4.32;;;17.40;82.90;;;;;;5097454;28;20023;-71
2022/10/14 01:12:13;;;;;;;6.32;3.90;;;17.40;82.80;;;;;;5114030;28;20022;-72
2022/10/14 01:14:45;;;;;;;6.22;3.90;;;17.40;82.90;;;;;;5113894;28;20024;-72
2022/10/14 01:17:32;;;;;;;10.85;3.63;;;17.40;82.90;;;;;;5115058;28;20051;-71
2022/10/14 01:20:26;;;;;;;5.60;4.03;;;17.40;82.90;;;;;;5113780;28;20168;-71
2022/10/14 01:23:37;;;;;;;7.80;3.65;;;17.40;82.80;;;;;;5115101;28;20027;-71
2022/10/14 01:26:24;;;;;;;8.13;3.95;;;17.40;82.90;;;;;;5098938;28;20054;-71
2022/10/14 01:28:59;;;;;;;4.65;3.42;;;17.40;82.90;;;;;;5113817;28;20015;-71
2022/10/14 01:31:29;;;;;;;4.82;3.80;;;17.40;82.90;;;;;;5097494;28;20103;-71
2022/10/14 01:33:56;;;;;;;7.25;3.95;;;17.40;82.90;;;;;;5113739;28;20024;-71
2022/10/14 01:36:29;;;;;;;6.68;3.88;;;17.40;82.90;;;;;;5096377;28;20435;-72
2022/10/14 01:39:00;;;;;;;4.85;4.10;;;17.40;82.90;;;;;;5112745;28;20028;-71
2022/10/14 01:41:34;;;;;;;4.13;3.45;;;17.40;82.90;;;;;;5097150;28;20019;-72
2022/10/14 01:44:03;;;;;;;5.07;3.67;;;17.40;82.80;;;;;;5097063;28;20012;-71
2022/10/14 01:46:28;;;;;;;7.53;3.47;;;17.40;82.90;;;;;;5088031;28;20028;-71
2022/10/14 01:49:00;;;;;;;5.85;3.58;;;17.40;82.80;;;;;;5075888;28;20450;-71
2022/10/14 01:51:31;;;;;;;4.82;3.28;;;17.40;82.80;;;;;;5092815;28;20470;-71
2022/10/14 01:54:07;;;;;;;4.90;3.58;;;17.40;82.80;;;;;;5092759;28;20185;-71
2022/10/14 01:56:33;;;;;;;4.85;3.33;;;17.30;82.70;;;;;;5076562;28;20081;-71
2022/10/14 01:58:58;;;;;;;4.90;3.47;;;17.40;82.80;;;;;;5075960;28;20107;-72
2022/10/14 02:01:24;;;;;;;4.75;3.50;;;17.40;82.80;;;;;;5075642;28;20378;-71
2022/10/14 02:03:50;;;;;;;4.72;3.47;;;17.40;82.80;;;;;;5093652;28;20031;-72
2022/10/14 02:06:26;;;;;;;3.42;3.13;;;17.30;82.80;;;;;;5093695;28;20032;-72
2022/10/14 02:08:57;;;;;;;6.25;3.65;;;17.40;82.80;;;;;;5079755;28;20088;-71
2022/10/14 02:11:23;;;;;;;3.97;3.60;;;17.40;82.80;;;;;;5112699;28;20485;-71
2022/10/14 02:14:17;;;;;;;4.90;3.40;;;17.40;82.80;;;;;;5112679;28;20103;-71
2022/10/14 02:17:12;;;;;;;7.07;3.53;;;17.40;82.80;;;;;;5113988;28;20065;-71
2022/10/14 02:19:49;;;;;;;5.00;3.17;;;17.40;82.90;;;;;;5051001;28;20041;-71
2022/10/14 02:22:36;;;;;;;4.95;3.80;;;17.40;82.80;;;;;;5034435;28;20043;-71
2022/10/14 02:25:32;;;;;;;7.50;3.40;;;17.40;82.80;;;;;;5034224;28;20074;-71
2022/10/14 02:27:58;;;;;;;3.45;3.15;;;17.40;82.90;;;;;;5034391;28;20108;-71
2022/10/14 02:30:24;;;;;;;4.20;2.97;;;17.30;82.80;;;;;;5034057;28;20033;-72
2022/10/14 02:32:50;;;;;;;3.70;3.17;;;17.40;83.90;;;;;;5034073;28;20018;-71
2022/10/14 02:35:16;;;;;;;7.25;3.33;;;17.40;82.80;;;;;;5034217;28;20029;-71
2022/10/14 02:37:42;;;;;;;6.57;3.00;;;17.40;82.70;;;;;;5034221;28;20602;-71
2022/10/14 02:40:13;;;;;;;3.30;3.00;;;17.40;82.70;;;;;;5034141;28;20056;-71
2022/10/14 02:42:39;;;;;;;5.93;3.50;;;17.40;82.80;;;;;;5033999;28;20037;-71
2022/10/14 02:45:05;;;;;;;4.38;3.08;;;17.40;82.80;;;;;;5033919;28;20036;-71
2022/10/14 02:47:30;;;;;;;4.97;3.53;;;17.40;82.80;;;;;;5017260;28;20036;-71
2022/10/14 02:49:56;;;;;;;4.20;2.95;;;17.40;82.80;;;;;;5030411;28;20033;-71
2022/10/14 02:52:22;;;;;;;4.90;2.90;;;17.40;82.90;;;;;;5029792;28;20049;-72
2022/10/14 02:54:47;;;;;;;9.70;3.60;;;17.40;82.80;;;;;;5014348;28;20041;-71
2022/10/14 02:57:13;;;;;;;10.73;3.33;;;17.40;82.90;;;;;;5072390;28;20097;-71
2022/10/14 02:59:38;;;;;;;5.32;3.78;;;17.40;82.90;;;;;;5072693;28;20020;-71
2022/10/14 03:02:06;;;;;;;3.28;2.95;;;17.40;82.90;;;;;;5072331;28;20021;-71
2022/10/14 03:04:32;;;;;;;3.75;2.90;;;17.40;82.90;;;;;;5071303;28;20020;-71
2022/10/14 03:06:58;;;;;;;4.70;3.03;;;17.40;82.90;;;;;;5071395;28;20100;-71
2022/10/14 03:09:23;;;;;;;6.32;3.28;;;17.40;82.90;;;;;;5085946;28;20149;-71
2022/10/14 03:11:49;;;;;;;4.75;3.13;;;17.40;82.90;;;;;;5111806;28;20023;-71
2022/10/14 03:14:14;;;;;;;4.65;3.10;;;17.40;82.80;;;;;;5111878;28;20011;-71
2022/10/14 03:16:40;;;;;;;4.50;2.92;;;17.40;82.90;;;;;;5094773;28;20032;-71
2022/10/14 03:19:06;;;;;;;3.78;3.25;;;17.40;82.90;;;;;;5113110;28;20051;-71
2022/10/14 03:21:31;;;;;;;7.82;3.00;;;17.40;82.90;;;;;;5094786;28;20371;-71
2022/10/14 03:23:57;;;;;;;3.17;2.88;;;17.40;82.80;;;;;;5112814;28;20558;-71
2022/10/14 03:26:23;;;;;;;3.20;2.90;;;17.40;82.90;;;;;;5112779;28;20474;-71
2022/10/14 03:28:49;;;;;;;4.78;3.10;;;17.40;82.90;;;;;;5094895;28;20020;-71
2022/10/14 03:31:14;;;;;;;5.22;3.42;;;17.40;82.90;;;;;;5112464;28;20024;-71
2022/10/14 03:33:40;;;;;;;4.63;2.97;;;17.40;82.90;;;;;;5112901;28;20016;-71
2022/10/14 03:36:06;;;;;;;3.55;3.25;;;17.40;82.90;;;;;;5111523;28;20097;-71
2022/10/14 03:38:31;;;;;;;6.95;3.20;;;17.40;82.90;;;;;;5112479;28;20034;-71
2022/10/14 03:40:57;;;;;;;4.20;3.38;;;17.40;82.90;;;;;;5112767;28;20031;-71
2022/10/14 03:43:23;;;;;;;2.92;2.70;;;17.40;83.90;;;;;;5111402;28;20028;-71
2022/10/14 03:45:48;;;;;;;3.10;2.67;;;17.40;82.90;;;;;;5109584;28;20036;-71
2022/10/14 03:48:14;;;;;;;3.88;2.97;;;17.40;83.00;;;;;;5092435;28;20016;-71
2022/10/14 03:50:40;;;;;;;4.88;2.90;;;17.40;83.00;;;;;;5092211;28;20106;-71
2022/10/14 03:53:05;;;;;;;4.55;3.10;;;17.40;82.90;;;;;;5092192;28;20044;-71
2022/10/14 03:55:31;;;;;;;8.93;3.25;;;17.40;83.00;;;;;;5092094;28;20031;-71
2022/10/14 03:57:56;;;;;;;4.28;2.85;;;17.40;83.00;;;;;;5091102;28;20027;-71
2022/10/14 04:00:22;;;;;;;3.17;2.53;;;17.40;83.10;;;;;;5091706;28;20510;-71
2022/10/14 04:02:48;;;;;;;3.78;2.85;;;17.40;83.10;;;;;;5094014;28;20020;-71
2022/10/14 04:05:13;;;;;;;3.28;2.67;;;17.40;83.20;;;;;;5094712;28;20028;-71
2022/10/14 04:07:39;;;;;;;3.88;2.88;;;17.40;83.20;;;;;;5095055;28;20035;-71
2022/10/14 04:10:05;;;;;;;4.05;3.17;;;17.40;83.20;;;;;;5109191;28;20477;-71
2022/10/14 04:12:31;;;;;;;4.18;3.00;;;17.40;83.30;;;;;;5097911;28;20107;-71
2022/10/14 04:14:57;;;;;;;4.38;2.70;;;17.40;83.20;;;;;;5098079;28;20094;-71
2022/10/14 04:17:25;;;;;;;4.43;2.63;;;17.40;83.30;;;;;;5116186;28;20388;-71
2022/10/14 04:19:51;;;;;;;3.17;2.88;;;17.40;83.30;;;;;;5116329;28;20027;-71
2022/10/14 04:22:17;;;;;;;6.28;3.20;;;17.40;83.30;;;;;;5116279;28;20076;-71
2022/10/14 04:24:43;;;;;;;3.05;2.65;;;17.40;83.30;;;;;;5114881;28;20031;-71
2022/10/14 04:27:08;;;;;;;3.58;2.92;;;17.40;83.30;;;;;;5116054;28;20031;-71
2022/10/14 04:29:34;;;;;;;2.72;2.40;;;17.40;83.40;;;;;;5114694;28;20492;-71
2022/10/14 04:32:00;;;;;;;3.78;2.30;;;17.40;83.30;;;;;;5116112;28;20020;-71
2022/10/14 04:34:25;;;;;;;3.65;2.90;;;17.40;83.30;;;;;;5115964;28;20041;-71
2022/10/14 04:36:52;;;;;;;4.93;2.70;;;17.40;83.30;;;;;;5115892;28;20435;-71
2022/10/14 04:39:17;;;;;;;3.65;2.70;;;17.40;83.30;;;;;;5115868;28;20024;-71
2022/10/14 04:41:43;;;;;;;3.50;2.65;;;17.40;83.30;;;;;;5115701;28;20085;-71
2022/10/14 04:44:09;;;;;;;4.15;2.95;;;17.40;83.30;;;;;;5115786;28;20106;-71
2022/10/14 04:46:34;;;;;;;2.90;2.70;;;17.40;83.30;;;;;;5106153;28;20402;-71
2022/10/14 04:49:00;;;;;;;2.92;2.67;;;17.40;83.20;;;;;;5095233;28;20095;-71
2022/10/14 04:51:26;;;;;;;2.95;2.70;;;17.40;83.20;;;;;;5094023;28;20024;-71
2022/10/14 04:53:51;;;;;;;3.40;2.63;;;17.40;83.20;;;;;;5093966;28;20055;-71
2022/10/14 04:56:17;;;;;;;3.65;2.72;;;17.40;83.20;;;;;;5095245;28;20021;-71
2022/10/14 04:58:42;;;;;;;3.13;2.40;;;17.40;83.20;;;;;;5094882;28;20024;-71
2022/10/14 05:01:08;;;;;;;3.08;2.63;;;17.40;83.20;;;;;;5093789;28;20027;-71
2022/10/14 05:03:34;;;;;;;5.30;2.97;;;17.40;83.20;;;;;;5094899;28;20038;-71
2022/10/14 05:05:59;;;;;;;2.40;2.17;;;17.40;83.20;;;;;;5094915;28;20020;-71
2022/10/14 05:08:25;;;;;;;3.53;2.90;;;17.40;83.20;;;;;;5088256;28;20479;-71
2022/10/14 05:10:50;;;;;;;3.25;2.55;;;17.40;83.20;;;;;;5102604;28;20031;-71
2022/10/14 05:13:16;;;;;;;3.28;2.30;;;17.40;83.20;;;;;;5093067;28;20470;-71
2022/10/14 05:15:42;;;;;;;6.05;2.67;;;17.40;83.20;;;;;;5094173;28;20502;-71
2022/10/14 05:18:12;;;;;;;3.40;2.95;;;17.40;83.30;;;;;;5093578;28;20024;-71
2022/10/14 05:20:37;;;;;;;2.60;2.40;;;17.40;83.20;;;;;;5093409;28;20089;-71
2022/10/14 05:23:04;;;;;;;2.30;2.10;;;17.40;83.30;;;;;;5094579;28;20494;-71
2022/10/14 05:25:29;;;;;;;3.63;2.40;;;17.40;83.20;;;;;;5094578;28;20103;-71
2022/10/14 05:27:55;;;;;;;3.00;2.40;;;17.40;83.30;;;;;;5094210;28;20461;-71
2022/10/14 05:30:21;;;;;;;5.78;2.70;;;17.40;83.40;;;;;;5093247;28;20020;-71
2022/10/14 05:32:46;;;;;;;2.75;2.20;;;17.40;83.50;;;;;;5093258;28;20016;-71
2022/10/14 05:35:12;;;;;;;2.42;2.22;;;17.40;83.60;;;;;;5094367;28;20069;-71
2022/10/14 05:37:38;;;;;;;4.25;2.63;;;17.40;83.60;;;;;;5094732;28;20032;-71
2022/10/14 05:40:04;;;;;;;2.70;2.40;;;17.40;83.60;;;;;;5094242;28;20371;-71
2022/10/14 05:42:29;;;;;;;6.47;2.63;;;17.40;83.70;;;;;;5092751;28;20028;-71
2022/10/14 05:44:55;;;;;;;4.07;2.63;;;17.40;83.60;;;;;;5094352;28;20035;-71
2022/10/14 05:47:21;;;;;;;3.97;2.40;;;17.40;83.60;;;;;;5092725;28;20032;-71
2022/10/14 05:49:47;;;;;;;2.95;2.45;;;17.40;83.70;;;;;;5092760;28;20111;-71
2022/10/14 05:52:12;;;;;;;2.75;2.50;;;17.40;83.70;;;;;;5094036;28;20077;-71
2022/10/14 05:54:38;;;;;;;3.22;2.58;;;17.40;83.70;;;;;;5094082;28;20103;-71
2022/10/14 05:57:04;;;;;;;3.00;2.47;;;17.40;83.70;;;;;;5093716;28;20032;-71
2022/10/14 05:59:30;;;;;;;2.63;2.42;;;17.40;83.70;;;;;;5094002;28;20035;-71
2022/10/14 06:01:56;;;;;;;2.63;2.42;;;17.40;83.70;;;;;;5075738;28;20039;-71
2022/10/14 06:04:21;;;;;;;2.33;2.13;;;17.40;83.70;;;;;;5075961;28;20091;-72
2022/10/14 06:06:47;;;;;;;1.52;1.40;;;17.40;82.90;;;;;;5075807;28;20028;-72
2022/10/14 06:09:13;;;;;;;2.28;1.70;;;17.40;82.00;;;;;;5098247;28;20030;-72
2022/10/14 06:11:39;;;;;;;4.53;1.50;;;17.40;81.60;;;;;;5113935;28;20019;-71
2022/10/14 06:14:04;;;;;;;1.75;1.55;;;17.40;81.50;;;;;;5111269;28;20081;-70
2022/10/14 06:16:30;;;;;;;1.92;1.73;;;17.40;81.60;;;;;;5113979;28;20062;-71
2022/10/14 06:18:56;;;;;;;2.22;1.85;;;17.40;81.60;;;;;;5112740;28;20103;-71
2022/10/14 06:21:22;;;;;;;2.38;1.80;;;17.30;81.70;;;;;;5093762;28;20119;-71
2022/10/14 06:23:48;;;;;;;3.65;2.00;;;17.30;81.30;;;;;;5081794;28;20103;-71
2022/10/14 06:26:13;;;;;;;1.65;1.55;;;17.30;81.40;;;;;;5071478;28;20375;-70
2022/10/14 06:28:39;;;;;;;2.60;1.85;;;17.30;81.50;;;;;;5071736;28;20024;-71
2022/10/14 06:31:05;;;;;;;2.55;1.70;;;17.30;81.40;;;;;;5071712;28;20031;-71
2022/10/14 06:33:31;;;;;;;1.90;1.80;;;17.30;81.20;;;;;;5071855;28;20020;-71
2022/10/14 06:35:56;;;;;;;3.58;1.73;;;17.30;81.30;;;;;;5072888;28;20096;-71
2022/10/14 06:38:22;;;;;;;2.70;1.90;;;17.30;81.20;;;;;;5078890;28;20389;-71
2022/10/14 06:40:52;;;;;;;2.28;2.08;;;17.30;81.30;;;;;;5082199;28;20020;-71
2022/10/14 06:43:18;;;;;;;2.70;2.28;;;17.30;81.20;;;;;;5080480;28;20013;-71
2022/10/14 06:45:43;;;;;;;3.85;2.03;;;17.30;81.20;;;;;;5082965;28;20545;-71
2022/10/14 06:48:09;;;;;;;2.35;1.80;;;17.30;81.20;;;;;;5077324;28;20138;-71
2022/10/14 06:50:35;;;;;;;2.72;2.00;;;17.30;81.10;;;;;;5079364;28;20020;-70
2022/10/14 06:53:01;;;;;;;3.45;1.70;;;17.30;81.20;;;;;;5077262;28;20427;-70
2022/10/14 06:55:26;;;;;;;22.67;3.75;;;17.30;81.20;;;;;;5071197;28;20027;-70
2022/10/14 06:57:52;;;;;;;13.20;3.85;;;17.30;81.40;;;;;;5070810;28;20093;-70
2022/10/14 07:00:18;;;;;;;10.20;3.45;;;17.30;81.40;;;;;;5070713;28;20025;-70
2022/10/14 07:02:44;;;;;;;11.43;3.40;;;17.30;81.40;;;;;;5068910;28;20039;-70
2022/10/14 07:05:09;;;;;;;11.20;3.47;;;17.30;81.50;;;;;;5070713;28;20027;-70
2022/10/14 07:07:35;;;;;;;14.82;3.95;;;17.30;81.60;;;;;;5071166;28;20272;-70
2022/10/14 07:10:00;;;;;;;14.18;3.50;;;17.20;81.50;;;;;;5099806;28;20030;-70
2022/10/14 07:12:26;;;;;;;10.65;3.25;;;17.30;81.50;;;;;;5105365;28;20497;-70
2022/10/14 07:14:52;;;;;;;9.75;3.60;;;17.20;81.40;;;;;;5074486;28;20028;-70
2022/10/14 07:17:17;;;;;;;14.40;3.35;;;17.30;81.50;;;;;;5103024;28;20051;-70
2022/10/14 07:19:43;;;;;;;14.73;3.30;;;17.30;81.40;;;;;;5111575;28;20030;-70
2022/10/14 07:22:09;;;;;;;12.60;3.33;;;17.30;81.40;;;;;;5111682;28;20016;-70
2022/10/14 07:24:34;;;;;;;16.85;3.97;;;17.30;81.40;;;;;;5111333;28;20379;-70
2022/10/14 07:27:00;;;;;;;16.10;3.80;;;17.30;81.40;;;;;;5092366;28;20024;-70
2022/10/14 07:29:26;;;;;;;10.65;3.78;;;17.30;81.50;;;;;;5074581;28;20055;-70
2022/10/14 07:31:52;;;;;;;19.00;4.03;;;17.30;81.50;;;;;;5092207;28;20091;-70
2022/10/14 07:34:18;;;;;;;17.75;3.92;;;17.30;81.50;;;;;;5092519;28;20028;-70
2022/10/14 07:36:43;;;;;;;13.75;4.18;;;17.30;81.50;;;;;;5092266;28;20020;-70
2022/10/14 07:39:09;;;;;;;11.13;3.92;;;17.30;81.50;;;;;;5096267;28;20478;-70
2022/10/14 07:41:35;;;;;;;12.82;4.10;;;17.30;81.50;;;;;;5095979;28;20402;-70
2022/10/14 07:44:04;;;;;;;14.25;4.72;;;17.20;81.40;;;;;;5115518;28;20035;-70
2022/10/14 07:46:33;;;;;;;20.17;4.38;;;17.20;81.40;;;;;;5107118;28;20489;-70
2022/10/14 07:49:15;;;;;;;15.30;4.03;;;17.20;81.50;;;;;;5096389;28;20470;-70
2022/10/14 07:51:41;;;;;;;15.25;4.43;;;17.20;81.50;;;;;;5095915;28;20115;-70
2022/10/14 07:54:10;;;;;;;11.65;4.50;;;17.20;81.50;;;;;;5078344;28;20067;-70
2022/10/14 07:56:36;;;;;;;18.05;4.28;;;17.20;81.40;;;;;;5078634;28;20020;-70
2022/10/14 07:59:02;;;;;;;18.02;3.47;;;17.30;81.50;;;;;;5095962;28;20106;-70
2022/10/14 08:01:28;;;;;;;16.05;3.65;;;17.20;81.40;;;;;;5094980;28;20119;-70
2022/10/14 08:03:53;;;;;;;16.67;3.65;;;17.20;81.50;;;;;;5094944;28;20028;-70
2022/10/14 08:06:19;;;;;;;13.20;3.85;;;17.20;81.50;;;;;;5095958;28;20056;-70
2022/10/14 08:08:45;;;;;;;15.93;3.60;;;17.20;81.40;;;;;;5094748;28;20050;-70
2022/10/14 08:11:25;;;;;;;13.75;4.10;;;17.20;81.50;;;;;;5094858;28;20529;-70
2022/10/14 08:13:50;;;;;;;9.85;3.35;;;17.20;81.40;;;;;;5094741;28;20020;-70
2022/10/14 08:16:24;;;;;;;14.02;3.20;;;17.20;81.50;;;;;;5100014;28;20443;-70
2022/10/14 08:18:49;;;;;;;12.18;3.38;;;17.20;82.40;;;;;;5116170;28;20111;-70
2022/10/14 08:21:19;;;;;;;21.20;4.47;;;17.20;81.40;;;;;;5097939;28;20100;-70
2022/10/14 08:23:45;;;;;;;13.10;4.20;;;17.20;81.40;;;;;;5081275;28;20409;-70
2022/10/14 08:26:27;;;;;;;12.27;3.40;;;17.20;81.30;;;;;;5116218;28;20023;-70
2022/10/14 08:28:53;;;;;;;10.27;3.30;;;17.20;81.30;;;;;;5114928;28;20023;-70
2022/10/14 08:31:19;;;;;;;9.98;3.45;;;17.20;81.30;;;;;;5097837;28;20034;-70
2022/10/14 08:33:44;;;;;;;17.20;3.72;;;17.20;81.30;;;;;;5114692;28;20027;-70
2022/10/14 08:36:10;;;;;;;10.90;3.22;;;17.20;81.30;;;;;;5115886;28;20493;-70
2022/10/14 08:38:36;;;;;;;11.18;3.80;;;17.20;81.30;;;;;;5115689;28;20051;-70
2022/10/14 08:41:24;;;;;;;9.75;3.28;;;17.20;81.30;;;;;;5115707;28;20375;-70
2022/10/14 08:44:12;;;;;;;10.57;3.38;;;17.20;81.30;;;;;;5100530;28;20031;-70
2022/10/14 08:46:39;;;;;;;12.43;3.40;;;17.20;81.30;;;;;;5105173;28;20051;-70
2022/10/14 08:49:28;;;;;;;10.75;3.75;;;17.20;81.30;;;;;;5093991;28;20028;-70
2022/10/14 08:52:14;;;;;;;10.23;3.75;;;17.20;81.20;;;;;;5093964;28;20359;-70
2022/10/14 08:54:54;;;;;;;11.73;3.25;;;17.20;81.30;;;;;;5093923;28;20036;-70
2022/10/14 08:57:21;;;;;;;9.10;3.05;;;17.20;81.20;;;;;;5078255;28;20028;-70
2022/10/14 08:59:48;;;;;;;12.77;3.78;;;17.20;81.30;;;;;;5077244;28;20051;-70
2022/10/14 09:02:23;;;;;;;9.35;3.22;;;17.10;81.20;;;;;;5095146;28;20024;-70
2022/10/14 09:04:48;;;;;;;13.32;3.92;;;17.10;81.20;;;;;;5094788;28;20021;-70
2022/10/14 09:07:18;;;;;;;9.90;3.05;;;17.10;81.20;;;;;;5093846;28;20024;-70
2022/10/14 09:09:45;;;;;;;10.40;3.40;;;17.20;81.30;;;;;;5076943;28;20028;-70
2022/10/14 09:12:16;;;;;;;9.55;3.33;;;17.10;81.20;;;;;;5093766;28;20024;-70
2022/10/14 09:14:43;;;;;;;13.90;3.72;;;17.20;81.30;;;;;;5077474;28;20027;-70
2022/10/14 09:17:21;;;;;;;11.38;3.38;;;17.10;81.20;;;;;;5089327;28;20026;-70
2022/10/14 09:19:51;;;;;;;8.02;3.20;;;17.10;81.20;;;;;;5097162;28;20031;-70
2022/10/14 09:22:17;;;;;;;7.38;3.22;;;17.10;81.20;;;;;;5097134;28;20025;-70
2022/10/14 09:24:47;;;;;;;13.57;3.20;;;17.10;81.10;;;;;;5114934;28;20085;-70
2022/10/14 09:27:20;;;;;;;8.73;3.55;;;17.10;81.10;;;;;;5097470;28;20520;-70
2022/10/14 09:29:47;;;;;;;13.55;4.03;;;17.10;81.20;;;;;;5096665;28;20474;-70
2022/10/14 09:32:19;;;;;;;8.95;3.13;;;17.10;81.10;;;;;;5113752;28;20023;-70
2022/10/14 09:34:48;;;;;;;9.95;3.05;;;17.20;81.20;;;;;;5097361;28;20027;-70
2022/10/14 09:37:27;;;;;;;5.63;2.85;;;17.10;82.20;;;;;;5096910;28;20031;-70
2022/10/14 09:40:05;;;;;;;7.25;2.65;;;17.10;81.10;;;;;;5114660;28;20236;-70
2022/10/14 09:42:52;;;;;;;10.65;2.47;;;17.10;81.20;;;;;;5114821;28;20028;-70
2022/10/14 09:45:21;;;;;;;9.85;2.97;;;17.10;81.10;;;;;;5113337;28;20103;-70
2022/10/14 09:47:58;;;;;;;10.20;2.90;;;17.10;81.20;;;;;;5093598;28;20059;-70
2022/10/14 09:50:29;;;;;;;8.52;2.83;;;17.10;81.10;;;;;;5076301;28;20020;-70
2022/10/14 09:53:19;;;;;;;11.02;3.08;;;17.10;81.10;;;;;;5093855;28;20048;-70
2022/10/14 09:55:51;;;;;;;10.20;2.85;;;17.10;81.20;;;;;;5082344;28;20040;-70
2022/10/14 09:58:18;;;;;;;6.70;2.85;;;17.10;81.20;;;;;;5092954;28;20024;-70
2022/10/14 10:00:43;;;;;;;5.60;2.97;;;17.10;81.20;;;;;;5092222;28;20024;-70
2022/10/14 10:03:09;;;;;;;8.55;2.40;;;17.10;81.30;;;;;;5092332;28;20069;-70
2022/10/14 10:05:35;;;;;;;7.07;2.35;;;17.10;81.20;;;;;;5092387;28;20494;-70
2022/10/14 10:08:13;;;;;;;7.75;2.55;;;17.10;81.20;;;;;;5092445;28;20028;-70
2022/10/14 10:10:39;;;;;;;6.15;2.60;;;17.10;81.20;;;;;;5093667;28;20043;-70
2022/10/14 10:13:21;;;;;;;7.95;2.65;;;17.10;81.20;;;;;;5092472;28;20067;-70
2022/10/14 10:15:57;;;;;;;9.27;2.40;;;17.10;81.20;;;;;;5077350;28;20518;-70
2022/10/14 10:18:23;;;;;;;7.97;2.45;;;17.10;81.10;;;;;;5113816;28;20122;-70
2022/10/14 10:21:05;;;;;;;7.03;2.55;;;17.10;81.20;;;;;;5112815;28;20524;-70
2022/10/14 10:23:33;;;;;;;5.38;2.60;;;17.10;81.20;;;;;;5112927;28;20076;-70
2022/10/14 10:26:15;;;;;;;6.80;2.83;;;17.10;81.20;;;;;;5095797;28;20116;-70
2022/10/14 10:28:44;;;;;;;5.43;2.35;;;17.10;81.20;;;;;;5112929;28;20023;-70
2022/10/14 10:31:21;;;;;;;5.40;2.35;;;17.10;81.20;;;;;;5113428;28;20030;-70
2022/10/14 10:33:49;;;;;;;8.70;2.75;;;17.10;81.10;;;;;;5112344;28;20015;-70
2022/10/14 10:36:39;;;;;;;6.32;2.15;;;17.10;81.20;;;;;;5113562;28;20031;-70
2022/10/14 10:39:36;;;;;;;5.53;2.42;;;17.10;81.20;;;;;;5112460;28;20501;-70
2022/10/14 10:42:22;;;;;;;6.35;2.60;;;17.10;81.30;;;;;;5102684;28;20036;-70
2022/10/14 10:45:08;;;;;;;9.13;2.85;;;17.00;81.20;;;;;;5095821;28;20029;-70
2022/10/14 10:47:47;;;;;;;6.25;2.15;;;17.10;81.30;;;;;;5095620;28;20114;-70
2022/10/14 10:50:13;;;;;;;5.10;2.58;;;17.10;81.40;;;;;;5093114;28;20054;-70
2022/10/14 10:52:55;;;;;;;5.22;2.38;;;17.10;81.40;;;;;;5092844;28;20441;-70
2022/10/14 10:55:29;;;;;;;5.90;2.22;;;17.00;81.30;;;;;;5091774;28;20032;-70
2022/10/14 10:58:26;;;;;;;6.75;2.20;;;17.10;81.40;;;;;;5091692;28;20035;-70
2022/10/14 11:01:15;;;;;;;7.72;2.53;;;17.10;81.40;;;;;;5078281;28;20028;-70
2022/10/14 11:03:59;;;;;;;6.00;1.90;;;17.10;81.40;;;;;;5075716;28;20020;-71
2022/10/14 11:13:07;;;;;;;6.47;2.28;;;17.10;81.40;;;;;;5090889;28;20047;-70
2022/10/14 11:15:55;;;;;;;3.92;1.98;;;17.00;81.40;;;;;;5091463;28;20020;-70
2022/10/14 11:18:47;;;;;;;8.68;2.58;;;17.10;81.40;;;;;;5054445;28;20408;-70
2022/10/14 11:21:52;;;;;;;6.82;2.17;;;17.00;81.30;;;;;;5030038;28;20029;-70
2022/10/14 11:24:32;;;;;;;3.70;1.88;;;17.10;81.50;;;;;;4990655;28;20034;-70
2022/10/14 11:27:07;;;;;;;6.32;2.10;;;17.00;81.50;;;;;;4990958;28;20116;-70
2022/10/14 11:29:45;;;;;;;6.53;1.92;;;17.10;81.50;;;;;;4975706;28;20022;-70
2022/10/14 11:32:21;;;;;;;5.50;2.20;;;17.00;81.40;;;;;;4990859;28;20035;-70
2022/10/14 11:35:11;;;;;;;5.30;2.08;;;17.00;81.50;;;;;;4974788;28;20050;-70
2022/10/14 11:38:07;;;;;;;9.48;3.20;;;17.00;81.40;;;;;;4990969;28;20030;-70
2022/10/14 11:40:51;;;;;;;3.05;1.85;;;17.10;81.50;;;;;;4990646;28;20115;-70
2022/10/14 11:43:35;;;;;;;4.93;2.30;;;17.00;81.50;;;;;;4990640;28;20057;-70
2022/10/14 11:46:10;;;;;;;5.15;2.45;;;17.10;81.50;;;;;;4990405;28;20451;-70
2022/10/14 11:48:41;;;;;;;7.43;2.10;;;17.00;81.50;;;;;;4989799;28;20026;-70
2022/10/14 11:51:11;;;;;;;5.40;1.95;;;17.10;81.50;;;;;;4990564;28;20042;-70
2022/10/14 11:53:37;;;;;;;4.05;2.10;;;17.00;81.50;;;;;;4990401;28;20121;-70
2022/10/14 11:56:08;;;;;;;4.38;1.85;;;17.00;81.50;;;;;;4990533;28;20158;-70
2022/10/14 11:58:34;;;;;;;4.43;1.90;;;17.00;81.60;;;;;;5018934;28;20117;-70
2022/10/14 12:01:00;;;;;;;3.35;1.90;;;17.00;81.50;;;;;;5070503;28;20032;-70
2022/10/14 12:03:53;;;;;;;5.13;2.25;;;17.10;81.50;;;;;;5070895;28;20027;-70
2022/10/14 12:06:26;;;;;;;4.70;1.90;;;17.00;81.50;;;;;;5070694;28;20487;-70
2022/10/14 12:09:14;;;;;;;3.03;1.77;;;17.10;81.50;;;;;;5070809;28;20115;-70
2022/10/14 12:11:43;;;;;;;3.40;2.00;;;17.00;81.50;;;;;;5071014;28;20036;-70
2022/10/14 12:14:51;;;;;;;4.90;1.65;;;17.00;81.50;;;;;;5054019;28;20016;-70
2022/10/14 12:17:26;;;;;;;4.90;1.70;;;17.00;81.50;;;;;;5039811;28;20095;-70
2022/10/14 12:19:52;;;;;;;4.78;1.75;;;17.00;81.50;;;;;;5053136;28;20400;-70
2022/10/14 12:22:24;;;;;;;3.38;1.70;;;17.00;81.50;;;;;;5052908;28;20029;-70
2022/10/14 12:24:54;;;;;;;5.90;2.10;;;17.00;81.50;;;;;;5056636;28;20028;-70
2022/10/14 12:27:21;;;;;;;3.25;1.77;;;17.10;81.50;;;;;;5056446;28;20098;-70
2022/10/14 12:29:51;;;;;;;3.95;1.95;;;17.00;81.50;;;;;;5056352;28;20024;-70
2022/10/14 12:32:21;;;;;;;4.60;1.80;;;17.00;82.50;;;;;;5057033;28;20033;-70
2022/10/14 12:34:48;;;;;;;3.00;1.50;;;17.00;81.50;;;;;;5057007;28;20024;-70
2022/10/14 12:37:23;;;;;;;3.33;1.58;;;17.00;81.50;;;;;;5056531;28;20055;-70
2022/10/14 12:40:01;;;;;;;4.18;1.75;;;17.00;81.50;;;;;;5073109;28;20557;-70
2022/10/14 12:42:26;;;;;;;5.65;2.30;;;17.00;81.60;;;;;;5057407;28;20098;-70
2022/10/14 12:44:56;;;;;;;3.47;1.58;;;17.00;81.50;;;;;;5056397;28;20449;-70
2022/10/14 12:47:32;;;;;;;3.83;1.98;;;17.00;81.60;;;;;;5041073;28;20037;-70
2022/10/14 12:50:01;;;;;;;2.58;1.63;;;17.00;81.50;;;;;;5021339;28;20040;-70
2022/10/14 12:52:36;;;;;;;3.97;1.67;;;17.00;81.50;;;;;;5089869;28;20040;-70
2022/10/14 12:55:08;;;;;;;4.32;1.80;;;17.00;81.50;;;;;;5073843;28;20146;-70
2022/10/14 12:57:35;;;;;;;2.78;1.65;;;17.00;81.50;;;;;;5090558;28;20028;-70
2022/10/14 13:00:26;;;;;;;5.43;1.88;;;17.00;81.50;;;;;;5090492;28;20098;-70
2022/10/14 13:02:59;;;;;;;3.22;1.85;;;17.00;81.50;;;;;;5073717;28;20021;-70
2022/10/14 13:05:28;;;;;;;3.03;1.80;;;17.00;81.50;;;;;;5090198;28;20021;-70
2022/10/14 13:08:14;;;;;;;5.95;1.90;;;17.00;81.60;;;;;;5074741;28;20025;-70